Time;durP1;ratioP1;P1;durP2;ratioP2;P2;SDS_P1;SDS_P2;PMS_P1;PMS_P2;Temp;Humidity;BMP_temperature;BMP_pressure;BME280_temperature;BME280_humidity;BME280_pressure;Samples;Min_cycle;Max_cycle;Signal;HPM_P1;HPM_P2
2022/10/24 00:00:51;;;;;;;61.10;53.60;;;;;;;8.84;100.00;98937.21;106056;1289;58128;-76
2022/10/24 00:03:34;;;;;;;58.30;51.50;;;;;;;8.84;100.00;98946.77;106079;1288;58388;-76
2022/10/24 00:06:03;;;;;;;61.90;54.00;;;;;;;8.85;100.00;98946.74;105821;1290;74254;-76
2022/10/24 00:08:30;;;;;;;58.40;52.00;;;;;;;8.86;100.00;98949.01;106055;1288;60993;-76
2022/10/24 00:10:57;;;;;;;57.10;50.60;;;;;;;8.85;100.00;98939.12;106057;1288;65065;-76
2022/10/24 00:13:23;;;;;;;53.90;48.00;;;;;;;8.85;100.00;98935.63;105918;1290;58124;-75
2022/10/24 00:15:51;;;;;;;54.80;48.40;;;;;;;8.83;100.00;98940.29;106084;1289;58011;-76
2022/10/24 00:18:18;;;;;;;56.20;48.60;;;;;;;8.83;100.00;98944.71;106077;1289;66263;-76
2022/10/24 00:20:44;;;;;;;50.50;45.20;;;;;;;8.84;100.00;98948.73;106091;1282;61015;-75
2022/10/24 00:23:12;;;;;;;50.70;45.20;;;;;;;8.85;100.00;98942.34;106064;1289;64995;-76
2022/10/24 00:25:39;;;;;;;48.60;42.20;;;;;;;8.85;100.00;98944.61;105811;1294;58226;-76
2022/10/24 00:28:06;;;;;;;49.20;43.90;;;;;;;8.84;100.00;98952.27;106081;1282;58170;-75
2022/10/24 00:30:32;;;;;;;49.90;43.30;;;;;;;8.83;100.00;98956.99;105728;1289;66240;-75
2022/10/24 00:32:59;;;;;;;50.30;44.80;;;;;;;8.81;100.00;98957.95;106081;1288;60689;-75
2022/10/24 00:35:26;;;;;;;54.70;45.80;;;;;;;8.80;100.00;98957.33;105799;1292;65006;-76
2022/10/24 00:37:53;;;;;;;48.70;43.40;;;;;;;8.80;100.00;98950.25;106045;1296;58119;-76
2022/10/24 00:40:20;;;;;;;48.10;42.90;;;;;;;8.81;100.00;98946.64;106074;1285;58268;-76
2022/10/24 00:42:47;;;;;;;49.00;43.70;;;;;;;8.82;100.00;98945.51;105719;1285;66218;-76
2022/10/24 00:45:48;;;;;;;50.10;43.80;;;;;;;8.83;100.00;98947.95;106093;1288;60079;-76
2022/10/24 00:49:01;;;;;;;50.20;44.70;;;;;;;8.80;100.00;98942.98;106076;1289;65270;-76
2022/10/24 00:51:31;;;;;;;50.60;44.60;;;;;;;8.79;100.00;98944.80;105481;1290;58206;-76
2022/10/24 00:54:05;;;;;;;52.30;43.20;;;;;;;8.78;100.00;98941.28;105474;1298;58252;-76
2022/10/24 00:56:36;;;;;;;47.40;42.40;;;;;;;8.78;100.00;98934.19;105215;1300;63735;-76
2022/10/24 00:59:06;;;;;;;45.80;41.00;;;;;;;8.78;100.00;98935.61;105131;1301;59158;-76
2022/10/24 01:01:33;;;;;;;47.40;42.10;;;;;;;8.78;100.00;98942.68;105176;1300;65028;-76
2022/10/24 01:04:01;;;;;;;47.90;42.70;;;;;;;8.79;100.00;98948.00;105075;1296;58286;-76
2022/10/24 01:06:45;;;;;;;46.30;41.60;;;;;;;8.77;100.00;98953.56;105214;1300;58254;-76
2022/10/24 01:09:31;;;;;;;45.10;40.50;;;;;;;8.77;100.00;98948.83;105210;1300;65318;-76
2022/10/24 01:12:08;;;;;;;46.30;41.40;;;;;;;8.78;100.00;98942.56;105209;1293;61104;-74
2022/10/24 01:14:52;;;;;;;45.40;40.60;;;;;;;8.79;100.00;98945.67;105189;1299;64550;-76
2022/10/24 01:17:24;;;;;;;46.50;41.00;;;;;;;8.80;100.00;98938.20;105119;1299;58181;-76
2022/10/24 01:19:56;;;;;;;45.40;40.50;;;;;;;8.81;100.00;98934.61;105208;1300;58047;-76
2022/10/24 01:22:36;;;;;;;46.80;41.70;;;;;;;8.82;100.00;98931.18;105195;1300;66212;-76
2022/10/24 01:25:56;;;;;;;48.50;43.30;;;;;;;8.83;100.00;98921.03;105006;1303;58766;-76
2022/10/24 01:28:36;;;;;;;48.60;43.20;;;;;;;8.82;100.00;98915.20;105160;1296;65033;-76
2022/10/24 01:31:11;;;;;;;49.30;43.10;;;;;;;8.83;100.00;98926.54;105574;1294;58885;-76
2022/10/24 01:33:49;;;;;;;48.60;40.30;;;;;;;8.81;100.00;98935.47;105509;1298;58083;-76
2022/10/24 01:36:24;;;;;;;44.50;39.50;;;;;;;8.78;100.00;98936.50;105574;1295;66026;-77
2022/10/24 01:38:58;;;;;;;43.80;39.20;;;;;;;8.74;100.00;98934.09;105527;1296;60280;-77
2022/10/24 01:41:29;;;;;;;44.80;39.90;;;;;;;8.70;100.00;98935.91;105392;1299;64311;-76
2022/10/24 01:44:04;;;;;;;45.80;40.80;;;;;;;8.66;100.00;98930.87;105579;1290;58197;-76
2022/10/24 01:46:45;;;;;;;45.40;40.50;;;;;;;8.63;100.00;98932.84;105553;1288;58366;-76
2022/10/24 01:49:16;;;;;;;44.90;40.00;;;;;;;8.59;100.00;98929.03;105319;1300;63959;-76
2022/10/24 01:51:44;;;;;;;47.90;39.90;;;;;;;8.55;100.00;98919.11;105579;1295;61070;-76
2022/10/24 01:54:12;;;;;;;46.80;41.60;;;;;;;8.54;100.00;98915.27;105589;1290;64916;-76
2022/10/24 01:56:38;;;;;;;44.60;39.70;;;;;;;8.52;100.00;98913.48;105559;1294;58238;-76
2022/10/24 01:59:27;;;;;;;44.00;38.60;;;;;;;8.49;100.00;98906.23;105580;1293;58101;-76
2022/10/24 02:02:00;;;;;;;43.00;38.40;;;;;;;8.46;100.00;98905.88;105733;1295;66272;-76
2022/10/24 02:04:33;;;;;;;47.00;40.90;;;;;;;8.44;100.00;98909.87;106064;1281;61026;-75
2022/10/24 02:07:05;;;;;;;45.40;40.40;;;;;;;8.42;100.00;98917.27;106061;1289;65077;-76
2022/10/24 02:09:36;;;;;;;46.00;41.20;;;;;;;8.38;100.00;98916.59;106086;1288;58352;-76
2022/10/24 02:12:07;;;;;;;47.00;42.10;;;;;;;8.35;100.00;98916.23;106098;1289;58414;-76
2022/10/24 02:14:39;;;;;;;44.80;40.00;;;;;;;8.33;100.00;98925.86;106080;1288;66163;-76
2022/10/24 02:17:06;;;;;;;43.10;38.30;;;;;;;8.33;100.00;98939.55;106068;1289;60994;-75
2022/10/24 02:19:33;;;;;;;44.60;39.90;;;;;;;8.30;100.00;98938.61;106044;1289;65003;-76
2022/10/24 02:21:59;;;;;;;42.40;37.70;;;;;;;8.27;100.00;98930.84;106075;1287;58125;-77
2022/10/24 02:24:35;;;;;;;46.00;41.10;;;;;;;8.23;100.00;98933.39;106080;1289;58499;-75
2022/10/24 02:27:23;;;;;;;48.70;41.10;;;;;;;8.19;100.00;98936.13;106065;1289;73601;-77
2022/10/24 02:29:57;;;;;;;48.80;43.70;;;;;;;8.17;100.00;98933.23;106076;1289;59970;-75
2022/10/24 02:32:30;;;;;;;49.50;44.40;;;;;;;8.15;100.00;98933.31;106071;1289;62655;-76
2022/10/24 02:34:59;;;;;;;44.30;39.70;;;;;;;8.12;100.00;98941.08;106049;1289;58479;-75
2022/10/24 02:37:29;;;;;;;48.50;42.30;;;;;;;8.09;100.00;98950.13;106064;1289;58096;-76
2022/10/24 02:39:57;;;;;;;50.60;43.60;;;;;;;8.07;100.00;98946.89;106066;1289;66273;-74
2022/10/24 02:42:27;;;;;;;47.10;42.20;;;;;;;8.06;100.00;98953.11;106078;1281;61008;-76
2022/10/24 02:44:54;;;;;;;48.70;43.50;;;;;;;8.06;100.00;98950.13;106062;1285;63934;-74
2022/10/24 02:47:24;;;;;;;53.10;47.60;;;;;;;8.04;100.00;98949.66;105754;1287;58302;-77
2022/10/24 02:49:51;;;;;;;58.20;52.00;;;;;;;8.02;100.00;98941.84;106074;1281;58246;-77
2022/10/24 02:52:18;;;;;;;57.00;51.00;;;;;;;8.01;100.00;98932.38;106059;1282;65470;-76
2022/10/24 02:54:45;;;;;;;60.30;53.50;;;;;;;7.99;100.00;98922.71;106072;1285;60122;-77
2022/10/24 02:57:13;;;;;;;55.90;49.80;;;;;;;8.00;100.00;98919.88;105629;1300;65090;-76
2022/10/24 02:59:40;;;;;;;57.40;51.00;;;;;;;8.00;100.00;98915.23;105661;1295;58228;-76
2022/10/24 03:02:07;;;;;;;54.20;48.40;;;;;;;8.01;100.00;98904.73;105666;1293;58109;-77
2022/10/24 03:04:33;;;;;;;53.40;47.60;;;;;;;8.03;100.00;98896.50;105528;1296;66126;-76
2022/10/24 03:07:00;;;;;;;53.30;47.10;;;;;;;8.05;100.00;98896.21;105653;1294;59929;-77
2022/10/24 03:09:27;;;;;;;47.40;42.20;;;;;;;8.07;100.00;98898.56;105654;1302;64997;-77
2022/10/24 03:11:53;;;;;;;48.70;43.70;;;;;;;8.08;100.00;98910.91;105656;1293;58435;-76
2022/10/24 03:14:20;;;;;;;53.90;47.20;;;;;;;8.08;100.00;98921.17;105683;1294;58102;-77
2022/10/24 03:16:46;;;;;;;55.00;49.00;;;;;;;8.08;100.00;98913.89;105657;1294;59819;-74
2022/10/24 03:19:13;;;;;;;52.60;46.90;;;;;;;8.10;100.00;98907.92;105655;1294;61038;-75
2022/10/24 03:21:41;;;;;;;53.40;47.50;;;;;;;8.13;100.00;98907.21;105658;1294;64652;-75
2022/10/24 03:24:07;;;;;;;56.00;50.00;;;;;;;8.16;100.00;98912.38;105652;1298;58349;-75
2022/10/24 03:26:34;;;;;;;58.50;52.30;;;;;;;8.18;100.00;98916.73;105635;1295;58144;-76
2022/10/24 03:29:00;;;;;;;55.90;50.20;;;;;;;8.18;100.00;98925.52;105899;1284;65164;-75
2022/10/24 03:31:29;;;;;;;54.70;49.00;;;;;;;8.19;100.00;98929.70;106018;1291;59935;-77
2022/10/24 03:33:56;;;;;;;55.30;49.20;;;;;;;8.21;100.00;98926.77;105994;1295;64906;-76
2022/10/24 03:36:23;;;;;;;54.50;48.60;;;;;;;8.24;100.00;98928.20;105833;1290;58170;-77
2022/10/24 03:38:50;;;;;;;53.70;48.00;;;;;;;8.27;100.00;98936.36;106027;1299;58057;-75
2022/10/24 03:41:18;;;;;;;54.50;48.30;;;;;;;8.29;100.00;98946.33;105996;1284;66156;-77
2022/10/24 03:43:44;;;;;;;55.30;49.30;;;;;;;8.30;100.00;98939.91;105826;1292;60994;-75
2022/10/24 03:46:12;;;;;;;56.60;50.50;;;;;;;8.32;100.00;98925.20;105998;1292;71150;-75
2022/10/24 03:48:39;;;;;;;56.40;50.40;;;;;;;8.35;100.00;98925.75;105996;1292;58110;-76
2022/10/24 03:51:05;;;;;;;58.70;52.30;;;;;;;8.38;100.00;98922.42;106015;1290;58145;-75
2022/10/24 03:53:32;;;;;;;60.20;53.60;;;;;;;8.39;100.00;98929.10;105994;1292;66124;-75
2022/10/24 03:55:59;;;;;;;61.40;55.10;;;;;;;8.38;100.00;98932.16;105714;1294;59647;-76
2022/10/24 03:58:27;;;;;;;65.90;57.20;;;;;;;8.35;100.00;98935.67;106003;1295;65006;-76
2022/10/24 04:00:56;;;;;;;78.00;65.00;;;;;;;8.34;100.00;98937.16;105986;1292;58455;-75
2022/10/24 04:03:22;;;;;;;78.20;66.50;;;;;;;8.34;100.00;98936.64;106020;1292;58014;-76
2022/10/24 04:05:49;;;;;;;78.00;64.40;;;;;;;8.34;100.00;98938.23;106026;1292;73429;-76
2022/10/24 04:08:19;;;;;;;79.70;65.30;;;;;;;8.33;100.00;98941.61;106043;1283;59986;-76
2022/10/24 04:10:48;;;;;;;75.10;64.70;;;;;;;8.34;100.00;98930.43;106077;1288;65001;-77
2022/10/24 04:13:14;;;;;;;81.10;66.80;;;;;;;8.33;100.00;98919.70;106050;1289;58048;-76
2022/10/24 04:15:41;;;;;;;84.70;70.40;;;;;;;8.33;100.00;98919.01;106066;1288;58084;-77
2022/10/24 04:18:08;;;;;;;79.70;68.70;;;;;;;8.30;100.00;98914.56;106077;1281;66045;-75
2022/10/24 04:20:35;;;;;;;82.70;68.90;;;;;;;8.28;100.00;98912.91;106088;1287;59792;-75
2022/10/24 04:23:02;;;;;;;76.90;66.80;;;;;;;8.26;100.00;98913.72;105620;1289;231906;-76
2022/10/24 04:25:31;;;;;;;74.80;66.30;;;;;;;8.24;100.00;98912.78;106049;1289;59137;-76
2022/10/24 04:28:00;;;;;;;71.00;63.20;;;;;;;8.22;100.00;98915.23;106062;1289;58139;-76
2022/10/24 04:30:29;;;;;;;76.20;65.40;;;;;;;8.21;100.00;98916.51;106090;1288;65313;-76
2022/10/24 04:32:56;;;;;;;73.10;63.90;;;;;;;8.22;100.00;98929.02;106071;1289;60201;-76
2022/10/24 04:35:24;;;;;;;75.60;66.60;;;;;;;8.24;100.00;98937.39;106065;1289;65039;-75
2022/10/24 04:37:52;;;;;;;73.30;65.20;;;;;;;8.27;100.00;98943.61;106070;1289;58176;-74
2022/10/24 04:40:19;;;;;;;73.40;63.70;;;;;;;8.29;100.00;98940.63;106063;1288;58045;-76
2022/10/24 04:42:45;;;;;;;70.70;63.10;;;;;;;8.32;100.00;98925.60;106065;1282;66202;-76
2022/10/24 04:45:15;;;;;;;72.80;64.90;;;;;;;8.35;100.00;98914.09;106085;1278;60967;-76
2022/10/24 04:47:50;;;;;;;75.40;66.70;;;;;;;8.38;100.00;98905.61;105620;1295;64278;-77
2022/10/24 04:50:17;;;;;;;74.30;66.00;;;;;;;8.42;100.00;98908.42;106051;1289;58141;-76
2022/10/24 04:52:43;;;;;;;73.90;65.90;;;;;;;8.44;100.00;98906.50;106088;1289;58187;-75
2022/10/24 04:55:10;;;;;;;76.10;67.10;;;;;;;8.46;100.00;98906.59;105826;1292;66220;-76
2022/10/24 04:57:40;;;;;;;;;;;;;;;8.49;100.00;98906.77;106098;1281;61476;-76
2022/10/24 05:00:07;;;;;;;75.70;66.50;;;;;;;8.51;100.00;98919.56;105868;1292;63719;-77
2022/10/24 05:02:37;;;;;;;85.20;73.40;;;;;;;8.53;100.00;98922.81;105499;1295;58260;-77
2022/10/24 05:05:07;;;;;;;82.90;73.10;;;;;;;8.54;100.00;98920.05;106049;1289;58235;-77
2022/10/24 05:07:56;;;;;;;84.50;72.40;;;;;;;8.56;100.00;98917.30;106083;1289;66047;-77
2022/10/24 05:10:30;;;;;;;80.40;71.10;;;;;;;8.57;100.00;98903.94;105858;1281;59559;-76
2022/10/24 05:13:01;;;;;;;81.80;73.00;;;;;;;8.60;100.00;98905.91;105823;1293;64020;-76
2022/10/24 05:15:28;;;;;;;78.30;69.70;;;;;;;8.61;100.00;98907.27;105323;1302;58291;-76
2022/10/24 05:17:58;;;;;;;79.10;70.40;;;;;;;8.62;100.00;98902.27;106077;1288;58101;-76
2022/10/24 05:20:47;;;;;;;77.80;69.10;;;;;;;8.64;100.00;98897.21;105883;1294;65059;-76
2022/10/24 05:23:35;;;;;;;76.10;66.60;;;;;;;8.65;100.00;98893.54;106079;1291;58400;-74
2022/10/24 05:26:03;;;;;;;75.30;66.20;;;;;;;8.67;100.00;98888.68;106075;1289;64002;-76
2022/10/24 05:28:40;;;;;;;74.70;66.40;;;;;;;8.68;100.00;98882.40;105600;1298;58514;-75
2022/10/24 05:31:13;;;;;;;77.60;69.20;;;;;;;8.69;100.00;98878.62;106072;1281;58229;-77
2022/10/24 05:33:53;;;;;;;74.90;66.70;;;;;;;8.71;100.00;98886.80;105863;1291;66004;-76
2022/10/24 05:36:25;;;;;;;77.00;68.40;;;;;;;8.74;100.00;98890.52;105634;1285;69359;-75
2022/10/24 05:39:24;;;;;;;74.50;66.10;;;;;;;8.76;100.00;98889.86;105826;1293;64929;-76
2022/10/24 05:42:17;;;;;;;74.10;66.00;;;;;;;8.80;100.00;98897.80;105838;1292;58494;-76
2022/10/24 05:44:55;;;;;;;73.30;65.30;;;;;;;8.83;100.00;98899.58;106088;1289;58132;-75
2022/10/24 05:47:33;;;;;;;74.30;66.00;;;;;;;8.84;100.00;98909.44;105844;1294;65156;-76
2022/10/24 05:50:16;;;;;;;73.30;63.80;;;;;;;8.84;100.00;98909.76;106074;1289;60986;-75
2022/10/24 05:53:03;;;;;;;75.40;64.80;;;;;;;8.85;100.00;98905.49;105504;1295;65159;-76
2022/10/24 05:55:42;;;;;;;72.60;64.70;;;;;;;8.86;100.00;98909.67;105692;1287;58166;-76
2022/10/24 05:58:30;;;;;;;78.70;70.10;;;;;;;8.87;100.00;98913.50;105457;1302;58171;-76
2022/10/24 06:01:01;;;;;;;79.20;70.60;;;;;;;8.90;100.00;98917.39;105633;1293;66837;-76
2022/10/24 06:04:18;;;;;;;81.30;72.70;;;;;;;8.94;100.00;98926.89;105266;1296;59943;-76
2022/10/24 06:07:08;;;;;;;90.70;80.90;;;;;;;8.96;100.00;98927.10;104539;1306;65009;-76
2022/10/24 06:09:54;;;;;;;81.60;72.20;;;;;;;9.00;100.00;98936.08;104357;1313;58113;-76
2022/10/24 06:12:35;;;;;;;82.60;73.80;;;;;;;9.02;100.00;98932.58;104243;1315;58153;-77
2022/10/24 06:18:28;;;;;;;;;;;;;;;9.10;100.00;98928.02;104208;1301;60730;-77
2022/10/24 06:21:19;;;;;;;75.00;65.30;;;;;;;9.16;100.00;98931.15;104012;1314;65105;-76
2022/10/24 06:24:38;;;;;;;75.40;65.90;;;;;;;9.28;100.00;98939.12;104820;1308;58257;-76
2022/10/24 06:28:13;;;;;;;71.20;62.60;;;;;;;9.44;100.00;98948.59;104208;1309;58283;-73
2022/10/24 06:31:07;;;;;;;64.60;57.60;;;;;;;9.59;100.00;98948.87;103609;1315;66211;-76
2022/10/24 06:33:47;;;;;;;69.40;62.00;;;;;;;9.69;100.00;98946.45;103613;1313;60155;-76
2022/10/24 06:36:16;;;;;;;71.20;63.40;;;;;;;9.76;100.00;98949.56;103596;1316;65105;-76
2022/10/24 06:38:45;;;;;;;72.40;64.50;;;;;;;9.82;100.00;98949.02;103810;1312;58116;-76
2022/10/24 06:41:13;;;;;;;72.90;65.50;;;;;;;9.90;100.00;98940.86;103900;1315;58566;-76
2022/10/24 06:43:41;;;;;;;77.10;68.90;;;;;;;9.98;100.00;98938.71;103744;1315;65273;-76
2022/10/24 06:46:09;;;;;;;76.50;68.70;;;;;;;10.07;100.00;98947.17;103928;1307;59929;-76
2022/10/24 06:48:36;;;;;;;74.90;67.20;;;;;;;10.17;100.00;98947.41;103882;1311;64088;-76
2022/10/24 06:51:03;;;;;;;73.50;65.70;;;;;;;10.26;100.00;98945.80;103921;1322;58222;-76
2022/10/24 06:53:31;;;;;;;66.30;59.20;;;;;;;10.35;100.00;98945.21;103702;1309;58147;-76
2022/10/24 06:56:03;;;;;;;61.50;55.10;;;;;;;10.42;100.00;98943.14;103999;1314;65306;-76
2022/10/24 06:58:31;;;;;;;57.60;51.80;;;;;;;10.49;100.00;98945.30;104003;1310;60020;-76
2022/10/24 07:00:59;;;;;;;61.50;55.10;;;;;;;10.56;100.00;98945.55;103944;1312;64154;-76
2022/10/24 07:03:25;;;;;;;64.90;58.10;;;;;;;10.63;100.00;98944.17;103931;1313;58173;-76
2022/10/24 07:05:52;;;;;;;64.80;58.10;;;;;;;10.74;100.00;98945.76;104777;1302;58940;-76
2022/10/24 07:08:19;;;;;;;63.70;56.80;;;;;;;10.86;100.00;98945.14;105627;1292;59865;-76
2022/10/24 07:10:45;;;;;;;63.40;56.90;;;;;;;10.99;100.00;98940.35;105772;1294;60952;-76
2022/10/24 07:13:12;;;;;;;58.40;52.30;;;;;;;11.12;100.00;98945.44;105744;1291;65270;-75
2022/10/24 07:15:38;;;;;;;51.20;45.80;;;;;;;11.26;100.00;98947.16;105783;1292;58244;-75
2022/10/24 07:18:05;;;;;;;49.60;44.30;;;;;;;11.41;100.00;98938.42;105767;1298;58108;-76
2022/10/24 07:20:31;;;;;;;45.20;40.60;;;;;;;11.56;100.00;98929.91;105779;1290;65247;-76
2022/10/24 07:22:58;;;;;;;43.40;39.00;;;;;;;11.71;100.00;98922.25;105793;1298;69247;-76
2022/10/24 07:25:24;;;;;;;43.50;38.80;;;;;;;11.84;100.00;98919.29;105971;1289;63705;-75
2022/10/24 07:27:53;;;;;;;43.70;37.60;;;;;;;12.00;100.00;98918.52;106035;1295;58599;-76
2022/10/24 07:30:20;;;;;;;41.40;37.10;;;;;;;12.16;100.00;98910.22;106063;1289;58285;-76
2022/10/24 07:32:48;;;;;;;39.90;35.50;;;;;;;12.32;100.00;98917.20;106074;1289;65320;-75
2022/10/24 07:35:15;;;;;;;41.80;37.50;;;;;;;12.48;100.00;98924.02;106081;1288;60968;-75
2022/10/24 07:37:41;;;;;;;45.10;40.60;;;;;;;12.65;100.00;98935.04;106074;1288;64073;-75
2022/10/24 07:40:08;;;;;;;43.30;38.90;;;;;;;12.83;100.00;98941.67;106033;1294;58102;-76
2022/10/24 07:42:35;;;;;;;37.10;32.70;;;;;;;13.02;100.00;98935.71;106069;1289;58097;-77
2022/10/24 07:45:02;;;;;;;33.30;29.90;;;;;;;13.24;100.00;98929.25;106056;1289;65181;-76
2022/10/24 07:47:29;;;;;;;30.90;26.60;;;;;;;13.45;100.00;98927.90;106073;1278;60963;-75
2022/10/24 07:49:55;;;;;;;25.70;23.00;;;;;;;13.64;100.00;98929.02;106035;1296;65039;-76
2022/10/24 07:52:22;;;;;;;22.20;19.00;;;;;;;13.83;100.00;98932.02;106075;1289;58124;-76
2022/10/24 07:54:52;;;;;;;19.80;17.70;;;;;;;14.01;100.00;98928.23;106037;1294;58045;-77
2022/10/24 07:57:19;;;;;;;17.80;16.10;;;;;;;14.19;100.00;98927.77;106039;1289;66224;-77
2022/10/24 07:59:46;;;;;;;17.80;14.20;;;;;;;14.39;100.00;98920.58;106061;1281;61784;-77
2022/10/24 08:02:14;;;;;;;16.00;13.70;;;;;;;14.56;100.00;98907.55;106062;1291;65031;-76
2022/10/24 08:04:40;;;;;;;16.00;12.80;;;;;;;14.73;100.00;98898.23;106068;1288;58177;-77
2022/10/24 08:07:12;;;;;;;19.40;14.40;;;;;;;14.88;100.00;98891.05;106042;1289;58142;-77
2022/10/24 08:09:45;;;;;;;17.50;13.10;;;;;;;15.01;100.00;98891.52;106081;1287;65243;-76
2022/10/24 08:12:12;;;;;;;19.20;13.20;;;;;;;15.14;100.00;98899.33;105950;1289;59984;-77
2022/10/24 08:14:40;;;;;;;18.00;12.20;;;;;;;15.28;100.00;98898.98;106055;1288;64986;-78
2022/10/24 08:17:07;;;;;;;18.40;12.20;;;;;;;15.43;100.00;98884.61;106031;1294;58122;-76
2022/10/24 08:19:34;;;;;;;16.30;11.10;;;;;;;15.62;100.00;98863.77;106060;1286;59976;-77
2022/10/24 08:22:01;;;;;;;15.40;11.30;;;;;;;15.79;100.00;98854.02;106106;1289;66639;-77
2022/10/24 08:24:28;;;;;;;17.40;11.30;;;;;;;16.00;100.00;98853.00;106233;1281;66834;-75
2022/10/24 08:26:55;;;;;;;13.10;10.50;;;;;;;16.20;100.00;98862.30;105773;1289;65037;-76
2022/10/24 08:29:22;;;;;;;14.80;11.00;;;;;;;16.44;100.00;98874.23;106034;1281;58450;-75
2022/10/24 08:31:50;;;;;;;11.50;9.10;;;;;;;16.70;100.00;98869.82;106073;1286;58159;-77
2022/10/24 08:34:17;;;;;;;12.90;9.80;;;;;;;16.97;100.00;98856.52;106058;1288;65189;-76
2022/10/24 08:36:44;;;;;;;11.50;8.90;;;;;;;17.23;100.00;98850.74;106093;1288;60046;-76
2022/10/24 08:39:11;;;;;;;10.00;8.00;;;;;;;17.55;100.00;98845.84;106048;1281;64058;-77
2022/10/24 08:41:39;;;;;;;13.00;9.10;;;;;;;17.86;100.00;98842.34;106066;1288;58224;-76
2022/10/24 08:44:23;;;;;;;9.50;7.90;;;;;;;18.09;100.00;98834.96;105827;1292;58332;-76
2022/10/24 08:47:19;;;;;;;8.70;6.80;;;;;;;18.27;100.00;98832.23;106062;1287;63877;-76
2022/10/24 08:49:54;;;;;;;8.90;7.10;;;;;;;18.46;100.00;98832.29;106063;1295;59938;-77
2022/10/24 08:52:31;;;;;;;11.50;6.90;;;;;;;18.64;100.00;98834.80;106059;1295;65017;-77
2022/10/24 08:55:02;;;;;;;8.20;6.50;;;;;;;18.82;100.00;98829.19;106046;1288;58234;-77
2022/10/24 08:57:32;;;;;;;9.50;6.30;;;;;;;19.09;100.00;98824.36;106068;1288;58044;-77
2022/10/24 09:00:03;;;;;;;7.10;5.30;;;;;;;19.30;100.00;98822.77;106076;1289;64974;-77
2022/10/24 09:02:36;;;;;;;8.50;5.80;;;;;;;19.38;100.00;98818.02;106084;1288;58397;-76
2022/10/24 09:05:12;;;;;;;7.50;4.70;;;;;;;19.42;100.00;98815.31;106052;1288;64005;-76
2022/10/24 09:07:44;;;;;;;6.60;5.00;;;;;;;19.37;100.00;98817.59;106040;1289;58196;-76
2022/10/24 09:10:24;;;;;;;8.10;3.80;;;;;;;19.34;100.00;98821.96;106071;1289;58195;-77
2022/10/24 09:12:51;;;;;;;4.80;3.60;;;;;;;19.26;100.00;98838.58;106065;1288;66348;-78
2022/10/24 09:15:29;;;;;;;6.70;3.80;;;;;;;19.22;100.00;98849.45;105923;1291;59939;-76
2022/10/24 09:17:58;;;;;;;4.70;2.80;;;;;;;19.20;100.00;98851.86;105690;1289;64765;-76
2022/10/24 09:20:32;;;;;;;4.20;3.00;;;;;;;19.18;100.00;98848.45;106047;1271;58134;-76
2022/10/24 09:23:03;;;;;;;4.70;2.70;;;;;;;19.18;100.00;98842.13;105961;1290;58122;-75
2022/10/24 09:25:35;;;;;;;5.30;3.20;;;;;;;19.19;100.00;98839.48;106061;1289;66166;-76
2022/10/24 09:28:04;;;;;;;4.20;2.80;;;;;;;19.22;100.00;98839.85;105767;1289;60096;-75
2022/10/24 09:30:32;;;;;;;4.90;3.10;;;;;;;19.25;100.00;98836.35;106047;1289;65093;-76
2022/10/24 09:33:06;;;;;;;6.10;3.20;;;;;;;19.22;100.00;98826.95;105799;1296;58075;-75
2022/10/24 09:35:34;;;;;;;4.90;3.10;;;;;;;19.24;100.00;98822.27;106063;1289;58061;-76
2022/10/24 09:38:24;;;;;;;4.60;3.00;;;;;;;19.30;100.00;98827.02;106076;1281;65407;-77
2022/10/24 09:40:55;;;;;;;4.10;2.90;;;;;;;19.32;100.00;98837.29;106059;1281;60128;-75
2022/10/24 09:43:37;;;;;;;5.30;3.40;;;;;;;19.33;100.00;98846.69;106050;1289;64041;-75
2022/10/24 09:46:09;;;;;;;8.30;4.90;;;;;;;19.34;100.00;98846.45;106040;1288;58148;-76
2022/10/24 09:48:50;;;;;;;4.20;3.80;;;;;;;19.34;100.00;98842.64;106054;1287;58092;-76
2022/10/24 09:51:20;;;;;;;6.80;3.70;;;;;;;19.34;100.00;98842.84;106051;1287;65197;-76
2022/10/24 09:54:16;;;;;;;5.00;3.60;;;;;;;19.35;100.00;98847.57;106069;1289;60890;-76
2022/10/24 09:56:52;;;;;;;5.70;3.50;;;;;;;19.38;100.00;98845.46;105421;1297;65222;-77
2022/10/24 09:59:36;;;;;;;5.70;3.60;;;;;;;19.39;100.00;98832.70;105405;1304;58468;-75
2022/10/24 10:02:20;;;;;;;7.80;3.80;;;;;;;19.44;100.00;98821.87;105432;1299;58065;-76
2022/10/24 10:04:56;;;;;;;7.60;3.90;;;;;;;19.52;100.00;98827.95;105417;1291;66516;-78
2022/10/24 10:07:29;;;;;;;5.70;3.50;;;;;;;19.57;100.00;98834.58;105388;1298;61010;-76
2022/10/24 10:09:58;;;;;;;5.70;4.50;;;;;;;19.58;100.00;98839.18;105420;1297;65031;-78
2022/10/24 10:12:38;;;;;;;6.40;3.90;;;;;;;19.58;100.00;98845.30;105428;1297;58144;-77
2022/10/24 10:15:48;;;;;;;5.40;3.50;;;;;;;19.60;100.00;98862.55;105409;1298;58597;-77
2022/10/24 10:18:24;;;;;;;7.70;4.50;;;;;;;19.62;100.00;98867.04;104709;1305;66245;-76
2022/10/24 10:20:57;;;;;;;5.60;4.00;;;;;;;19.64;100.00;98858.03;104667;1304;60798;-75
2022/10/24 10:23:25;;;;;;;6.90;4.80;;;;;;;19.67;100.00;98844.68;104669;1299;64083;-75
2022/10/24 10:26:13;;;;;;;5.80;4.80;;;;;;;19.74;100.00;98839.87;104677;1298;58532;-75
2022/10/24 10:28:56;;;;;;;7.50;4.80;;;;;;;19.83;100.00;98835.63;104679;1306;59212;-78
2022/10/24 10:31:45;;;;;;;5.40;3.90;;;;;;;19.87;100.00;98838.91;104685;1306;66215;-75
2022/10/24 10:34:21;;;;;;;5.40;4.40;;;;;;;19.94;100.00;98842.72;105231;1302;61069;-76
2022/10/24 10:37:07;;;;;;;4.60;4.20;;;;;;;20.06;100.00;98850.98;105473;1297;65076;-76
2022/10/24 10:39:49;;;;;;;5.30;4.50;;;;;;;20.11;100.00;98859.70;105465;1294;58178;-76
2022/10/24 10:42:33;;;;;;;4.40;4.00;;;;;;;20.03;100.00;98865.96;105443;1296;58245;-76
2022/10/24 10:45:21;;;;;;;5.20;4.20;;;;;;;20.02;100.00;98865.83;105462;1297;65191;-76
2022/10/24 10:48:14;;;;;;;7.20;4.50;;;;;;;20.08;100.00;98862.11;105241;1292;59782;-76
2022/10/24 10:50:55;;;;;;;7.90;4.90;;;;;;;20.15;100.00;98858.27;104782;1302;64054;-76
2022/10/24 10:53:46;;;;;;;5.10;4.00;;;;;;;20.23;100.00;98852.88;104865;1311;58334;-76
2022/10/24 10:56:18;;;;;;;6.10;3.90;;;;;;;20.32;100.00;98851.92;105400;1298;58095;-77
2022/10/24 10:59:05;;;;;;;5.20;4.60;;;;;;;20.36;100.00;98848.74;105398;1291;66376;-76
2022/10/24 11:01:59;;;;;;;6.20;4.40;;;;;;;20.39;100.00;98843.23;105424;1297;60972;-76
2022/10/24 11:04:39;;;;;;;6.80;4.50;;;;;;;20.49;100.00;98842.14;105420;1294;65325;-77
2022/10/24 11:07:15;;;;;;;4.80;3.70;;;;;;;20.63;100.00;98841.33;105392;1303;58337;-76
2022/10/24 11:09:45;;;;;;;5.40;3.90;;;;;;;20.68;100.00;98832.69;105388;1305;58230;-76
2022/10/24 11:12:15;;;;;;;5.40;3.60;;;;;;;20.71;100.00;98835.94;105416;1296;66229;-76
2022/10/24 11:14:49;;;;;;;5.20;3.50;;;;;;;20.77;100.00;98837.82;105417;1297;59954;-75
2022/10/24 11:17:15;;;;;;;4.60;3.30;;;;;;;20.75;100.00;98841.29;105393;1297;63881;-75
2022/10/24 11:20:06;;;;;;;6.40;3.70;;;;;;;20.73;100.00;98842.37;105397;1298;58379;-75
2022/10/24 11:22:59;;;;;;;5.00;3.00;;;;;;;20.71;100.00;98843.33;105427;1297;58182;-76
2022/10/24 11:25:41;;;;;;;4.40;3.50;;;;;;;20.68;100.00;98843.69;104899;1295;66342;-77
2022/10/24 11:28:14;;;;;;;4.80;3.30;;;;;;;20.62;100.00;98846.08;105148;1303;60965;-77
2022/10/24 11:30:48;;;;;;;3.30;3.00;;;;;;;20.60;100.00;98845.67;105445;1298;63953;-76
2022/10/24 11:33:23;;;;;;;3.70;2.70;;;;;;;20.59;100.00;98843.14;105439;1298;58301;-77
2022/10/24 11:36:00;;;;;;;4.40;2.60;;;;;;;20.60;100.00;98843.10;105457;1304;59016;-77
2022/10/24 11:38:31;;;;;;;5.40;2.70;;;;;;;20.62;100.00;98845.05;105456;1297;65336;-77
2022/10/24 11:41:17;;;;;;;3.30;2.80;;;;;;;20.62;100.00;98847.35;105454;1296;60775;-75